Terminal Aerodrome Forecast
Issued by NWS Twin Cities, MN

Home | Current Version | Previous Version | Text Only | Print | Product List | Glossary Off
Versions: 1 2 3 4 5 6 7 8 9 10 11 12 13 14 15 16 17 18 19 20 21 22 23 24 25 26 27 28 29 30

000
FTUS43 KMPX 271459 AAA
TAFMSP
TAF AMD
KMSP 271459Z 2715/2818 14005KT P6SM BKN070 OVC250
     FM271800 15009KT P6SM SCT050 BKN110
     FM280000 14007KT P6SM SCT040 OVC100
     FM280500 15006KT 5SM -SHRA BKN040 OVC060
     FM280900 12007KT 4SM -RA BR BKN025 OVC040
      TEMPO 2811/2815 2SM RA BR SCT007 OVC015=

USA.gov is the U.S. government's official web portal to all federal, state and local government web resources and services.